sensor_id;sensor_type;location;lat;lon;timestamp;pressure;altitude;pressure_sealevel;temperature;humidity
11448;BME280;43755;49.736;8.734;2022-10-16T00:00:42;97629.66;;;14.80;100.00
11448;BME280;43755;49.736;8.734;2022-10-16T00:02:44;97633.56;;;14.74;100.00
11448;BME280;43755;49.736;8.734;2022-10-16T00:04:45;97638.25;;;14.71;100.00
11448;BME280;43755;49.736;8.734;2022-10-16T00:06:46;97647.50;;;14.65;100.00
11448;BME280;43755;49.736;8.734;2022-10-16T00:08:49;97650.66;;;14.58;100.00
11448;BME280;43755;49.736;8.734;2022-10-16T00:10:50;97649.88;;;14.56;100.00
11448;BME280;43755;49.736;8.734;2022-10-16T00:12:53;97647.88;;;14.59;100.00
11448;BME280;43755;49.736;8.734;2022-10-16T00:14:55;97647.34;;;14.54;100.00
11448;BME280;43755;49.736;8.734;2022-10-16T00:16:56;97651.88;;;14.52;100.00
11448;BME280;43755;49.736;8.734;2022-10-16T00:18:58;97639.06;;;14.45;100.00
11448;BME280;43755;49.736;8.734;2022-10-16T00:21:02;97659.78;;;14.40;100.00
11448;BME280;43755;49.736;8.734;2022-10-16T00:23:04;97665.84;;;14.27;100.00
11448;BME280;43755;49.736;8.734;2022-10-16T00:25:06;97658.25;;;14.21;100.00
11448;BME280;43755;49.736;8.734;2022-10-16T00:27:07;97654.75;;;14.21;100.00
11448;BME280;43755;49.736;8.734;2022-10-16T00:29:10;97638.69;;;14.22;100.00
11448;BME280;43755;49.736;8.734;2022-10-16T00:31:12;97645.91;;;14.20;100.00
11448;BME280;43755;49.736;8.734;2022-10-16T00:33:13;97651.81;;;14.25;100.00
11448;BME280;43755;49.736;8.734;2022-10-16T00:35:15;97649.41;;;14.21;100.00
11448;BME280;43755;49.736;8.734;2022-10-16T00:37:16;97649.34;;;14.22;100.00
11448;BME280;43755;49.736;8.734;2022-10-16T00:39:17;97649.97;;;14.26;100.00
11448;BME280;43755;49.736;8.734;2022-10-16T00:41:20;97649.81;;;14.29;100.00
11448;BME280;43755;49.736;8.734;2022-10-16T00:43:37;97649.25;;;14.24;100.00
11448;BME280;43755;49.736;8.734;2022-10-16T00:45:41;97648.09;;;14.28;100.00
11448;BME280;43755;49.736;8.734;2022-10-16T00:47:44;97647.06;;;14.30;100.00
11448;BME280;43755;49.736;8.734;2022-10-16T00:49:50;97653.41;;;14.28;100.00
11448;BME280;43755;49.736;8.734;2022-10-16T00:51:53;97662.63;;;14.37;100.00
11448;BME280;43755;49.736;8.734;2022-10-16T00:53:55;97651.72;;;14.41;100.00
11448;BME280;43755;49.736;8.734;2022-10-16T00:55:57;97646.50;;;14.40;100.00
11448;BME280;43755;49.736;8.734;2022-10-16T00:57:59;97654.28;;;14.43;100.00
11448;BME280;43755;49.736;8.734;2022-10-16T01:00:07;97655.34;;;14.40;100.00
11448;BME280;43755;49.736;8.734;2022-10-16T01:02:13;97667.59;;;14.43;100.00
11448;BME280;43755;49.736;8.734;2022-10-16T01:04:15;97659.41;;;14.46;100.00
11448;BME280;43755;49.736;8.734;2022-10-16T01:06:22;97665.50;;;14.48;100.00
11448;BME280;43755;49.736;8.734;2022-10-16T01:08:30;97663.78;;;14.47;100.00
11448;BME280;43755;49.736;8.734;2022-10-16T01:10:38;97663.00;;;14.45;100.00
11448;BME280;43755;49.736;8.734;2022-10-16T01:12:45;97662.53;;;14.52;100.00
11448;BME280;43755;49.736;8.734;2022-10-16T01:14:54;97661.88;;;14.49;100.00
11448;BME280;43755;49.736;8.734;2022-10-16T01:17:02;97656.34;;;14.52;100.00
11448;BME280;43755;49.736;8.734;2022-10-16T01:19:09;97652.19;;;14.48;100.00
11448;BME280;43755;49.736;8.734;2022-10-16T01:21:15;97670.53;;;14.52;100.00
11448;BME280;43755;49.736;8.734;2022-10-16T01:23:27;97675.84;;;14.52;100.00
11448;BME280;43755;49.736;8.734;2022-10-16T01:25:43;97672.25;;;14.53;100.00
11448;BME280;43755;49.736;8.734;2022-10-16T01:27:49;97670.31;;;14.55;100.00
11448;BME280;43755;49.736;8.734;2022-10-16T01:29:53;97672.97;;;14.55;100.00
11448;BME280;43755;49.736;8.734;2022-10-16T01:31:58;97669.19;;;14.59;100.00
11448;BME280;43755;49.736;8.734;2022-10-16T01:34:02;97668.97;;;14.62;100.00
11448;BME280;43755;49.736;8.734;2022-10-16T01:36:10;97668.88;;;14.64;100.00
11448;BME280;43755;49.736;8.734;2022-10-16T01:38:16;97668.78;;;14.65;100.00
11448;BME280;43755;49.736;8.734;2022-10-16T01:40:21;97662.78;;;14.62;100.00
11448;BME280;43755;49.736;8.734;2022-10-16T01:42:28;97662.41;;;14.68;100.00
11448;BME280;43755;49.736;8.734;2022-10-16T01:44:35;97668.66;;;14.67;100.00
11448;BME280;43755;49.736;8.734;2022-10-16T01:46:41;97670.00;;;14.74;100.00
11448;BME280;43755;49.736;8.734;2022-10-16T01:48:43;97668.28;;;14.73;100.00
11448;BME280;43755;49.736;8.734;2022-10-16T01:51:04;97674.19;;;14.78;100.00
11448;BME280;43755;49.736;8.734;2022-10-16T01:53:09;97676.94;;;14.77;100.00
11448;BME280;43755;49.736;8.734;2022-10-16T01:55:15;97689.19;;;14.79;100.00
11448;BME280;43755;49.736;8.734;2022-10-16T01:57:17;97692.69;;;14.80;100.00
11448;BME280;43755;49.736;8.734;2022-10-16T01:59:23;97694.31;;;14.82;100.00
11448;BME280;43755;49.736;8.734;2022-10-16T02:01:30;97692.53;;;14.83;100.00
11448;BME280;43755;49.736;8.734;2022-10-16T02:03:33;97692.63;;;14.81;100.00
11448;BME280;43755;49.736;8.734;2022-10-16T02:05:39;97685.38;;;14.83;100.00
11448;BME280;43755;49.736;8.734;2022-10-16T02:07:42;97681.38;;;14.90;100.00
11448;BME280;43755;49.736;8.734;2022-10-16T02:09:44;97670.59;;;14.92;100.00
11448;BME280;43755;49.736;8.734;2022-10-16T02:11:45;97669.75;;;14.91;100.00
11448;BME280;43755;49.736;8.734;2022-10-16T02:13:53;97663.78;;;14.88;100.00
11448;BME280;43755;49.736;8.734;2022-10-16T02:15:56;97669.75;;;14.91;100.00
11448;BME280;43755;49.736;8.734;2022-10-16T02:17:58;97682.13;;;14.92;100.00
11448;BME280;43755;49.736;8.734;2022-10-16T02:20:00;97671.28;;;14.95;100.00
11448;BME280;43755;49.736;8.734;2022-10-16T02:22:06;97668.78;;;14.92;100.00
11448;BME280;43755;49.736;8.734;2022-10-16T02:24:13;97660.63;;;14.95;100.00
11448;BME280;43755;49.736;8.734;2022-10-16T02:26:23;97661.66;;;14.93;100.00
11448;BME280;43755;49.736;8.734;2022-10-16T02:28:32;97659.84;;;14.93;100.00
11448;BME280;43755;49.736;8.734;2022-10-16T02:30:39;97662.63;;;14.92;100.00
11448;BME280;43755;49.736;8.734;2022-10-16T02:32:44;97661.75;;;14.91;100.00
11448;BME280;43755;49.736;8.734;2022-10-16T02:34:49;97663.38;;;14.94;100.00
11448;BME280;43755;49.736;8.734;2022-10-16T02:36:52;97666.13;;;14.92;100.00
11448;BME280;43755;49.736;8.734;2022-10-16T02:38:55;97667.00;;;14.93;100.00
11448;BME280;43755;49.736;8.734;2022-10-16T02:40:56;97659.84;;;14.93;100.00
11448;BME280;43755;49.736;8.734;2022-10-16T02:42:58;97670.50;;;14.93;100.00
11448;BME280;43755;49.736;8.734;2022-10-16T02:44:59;97676.16;;;14.89;100.00
11448;BME280;43755;49.736;8.734;2022-10-16T02:47:00;97677.00;;;14.89;100.00
11448;BME280;43755;49.736;8.734;2022-10-16T02:49:03;97676.25;;;14.87;100.00
11448;BME280;43755;49.736;8.734;2022-10-16T02:51:06;97673.41;;;14.90;100.00
11448;BME280;43755;49.736;8.734;2022-10-16T02:53:07;97674.88;;;14.94;100.00
11448;BME280;43755;49.736;8.734;2022-10-16T02:55:08;97673.19;;;14.93;100.00
11448;BME280;43755;49.736;8.734;2022-10-16T02:57:10;97679.53;;;14.91;100.00
11448;BME280;43755;49.736;8.734;2022-10-16T02:59:11;97670.41;;;14.95;100.00
11448;BME280;43755;49.736;8.734;2022-10-16T03:01:13;97674.03;;;14.94;100.00
11448;BME280;43755;49.736;8.734;2022-10-16T03:03:16;97679.53;;;14.91;100.00
11448;BME280;43755;49.736;8.734;2022-10-16T03:05:18;97679.34;;;14.94;100.00
11448;BME280;43755;49.736;8.734;2022-10-16T03:07:20;97684.03;;;14.90;100.00
11448;BME280;43755;49.736;8.734;2022-10-16T03:09:22;97690.00;;;14.94;100.00
11448;BME280;43755;49.736;8.734;2022-10-16T03:11:23;97698.78;;;14.96;100.00
11448;BME280;43755;49.736;8.734;2022-10-16T03:13:25;97692.47;;;14.97;100.00
11448;BME280;43755;49.736;8.734;2022-10-16T03:15:26;97690.00;;;14.94;100.00
11448;BME280;43755;49.736;8.734;2022-10-16T03:17:28;97682.56;;;14.99;100.00
11448;BME280;43755;49.736;8.734;2022-10-16T03:19:29;97674.69;;;14.97;100.00
11448;BME280;43755;49.736;8.734;2022-10-16T03:21:31;97689.91;;;14.95;100.00
11448;BME280;43755;49.736;8.734;2022-10-16T03:23:33;97684.59;;;14.95;100.00
11448;BME280;43755;49.736;8.734;2022-10-16T03:25:35;97690.78;;;14.96;100.00
11448;BME280;43755;49.736;8.734;2022-10-16T03:27:36;97684.69;;;14.94;100.00
11448;BME280;43755;49.736;8.734;2022-10-16T03:29:38;97685.25;;;14.99;100.00
11448;BME280;43755;49.736;8.734;2022-10-16T03:31:40;97688.84;;;14.98;100.00
11448;BME280;43755;49.736;8.734;2022-10-16T03:33:41;97682.66;;;14.97;100.00
11448;BME280;43755;49.736;8.734;2022-10-16T03:35:43;97695.13;;;14.97;100.00
11448;BME280;43755;49.736;8.734;2022-10-16T03:37:51;97693.31;;;14.97;100.00
11448;BME280;43755;49.736;8.734;2022-10-16T03:39:54;97692.38;;;14.98;100.00
11448;BME280;43755;49.736;8.734;2022-10-16T03:41:55;97697.50;;;15.01;100.00
11448;BME280;43755;49.736;8.734;2022-10-16T03:43:57;97694.09;;;14.99;100.00
11448;BME280;43755;49.736;8.734;2022-10-16T03:45:58;97696.09;;;14.96;100.00
11448;BME280;43755;49.736;8.734;2022-10-16T03:47:59;97695.97;;;14.97;100.00
11448;BME280;43755;49.736;8.734;2022-10-16T03:50:03;97707.50;;;14.98;100.00
11448;BME280;43755;49.736;8.734;2022-10-16T03:52:05;97720.06;;;14.96;100.00
11448;BME280;43755;49.736;8.734;2022-10-16T03:54:06;97716.16;;;15.01;100.00
11448;BME280;43755;49.736;8.734;2022-10-16T03:56:09;97710.84;;;15.01;100.00
11448;BME280;43755;49.736;8.734;2022-10-16T03:58:11;97713.59;;;15.00;100.00
11448;BME280;43755;49.736;8.734;2022-10-16T04:00:13;97709.97;;;15.01;100.00
11448;BME280;43755;49.736;8.734;2022-10-16T04:02:15;97708.81;;;15.05;100.00
11448;BME280;43755;49.736;8.734;2022-10-16T04:04:16;97710.13;;;15.12;100.00
11448;BME280;43755;49.736;8.734;2022-10-16T04:06:18;97715.84;;;15.06;100.00
11448;BME280;43755;49.736;8.734;2022-10-16T04:08:19;97721.09;;;15.07;100.00
11448;BME280;43755;49.736;8.734;2022-10-16T04:10:20;97723.75;;;15.07;100.00
11448;BME280;43755;49.736;8.734;2022-10-16T04:12:23;97726.28;;;15.09;100.00
11448;BME280;43755;49.736;8.734;2022-10-16T04:14:25;97710.53;;;15.06;100.00
11448;BME280;43755;49.736;8.734;2022-10-16T04:16:26;97704.97;;;15.09;100.00
11448;BME280;43755;49.736;8.734;2022-10-16T04:18:27;97714.91;;;15.07;100.00
11448;BME280;43755;49.736;8.734;2022-10-16T04:20:29;97722.03;;;15.06;100.00
11448;BME280;43755;49.736;8.734;2022-10-16T04:22:31;97718.22;;;15.10;100.00
11448;BME280;43755;49.736;8.734;2022-10-16T04:24:32;97716.31;;;15.12;100.00
11448;BME280;43755;49.736;8.734;2022-10-16T04:26:33;97704.03;;;15.10;100.00
11448;BME280;43755;49.736;8.734;2022-10-16T04:28:36;97714.50;;;15.13;100.00
11448;BME280;43755;49.736;8.734;2022-10-16T04:30:38;97717.16;;;15.13;100.00
11448;BME280;43755;49.736;8.734;2022-10-16T04:32:40;97728.09;;;15.08;100.00
11448;BME280;43755;49.736;8.734;2022-10-16T04:34:41;97728.09;;;15.08;100.00
11448;BME280;43755;49.736;8.734;2022-10-16T04:36:43;97722.03;;;15.06;100.00
11448;BME280;43755;49.736;8.734;2022-10-16T04:38:44;97726.50;;;15.06;100.00
11448;BME280;43755;49.736;8.734;2022-10-16T04:40:45;97720.31;;;15.05;100.00
11448;BME280;43755;49.736;8.734;2022-10-16T04:42:47;97722.03;;;15.06;100.00
11448;BME280;43755;49.736;8.734;2022-10-16T04:44:49;97720.31;;;15.05;100.00
11448;BME280;43755;49.736;8.734;2022-10-16T04:46:51;97721.28;;;15.04;100.00
11448;BME280;43755;49.736;8.734;2022-10-16T04:48:52;97729.25;;;15.04;100.00
11448;BME280;43755;49.736;8.734;2022-10-16T04:50:54;97738.03;;;15.06;100.00
11448;BME280;43755;49.736;8.734;2022-10-16T04:52:55;97729.25;;;15.04;100.00
11448;BME280;43755;49.736;8.734;2022-10-16T04:54:57;97734.41;;;15.07;100.00
11448;BME280;43755;49.736;8.734;2022-10-16T04:57:01;97736.22;;;15.07;100.00
11448;BME280;43755;49.736;8.734;2022-10-16T04:59:03;97739.53;;;15.10;100.00
11448;BME280;43755;49.736;8.734;2022-10-16T05:01:05;97732.16;;;15.14;100.00
11448;BME280;43755;49.736;8.734;2022-10-16T05:03:07;97725.25;;;15.11;100.00
11448;BME280;43755;49.736;8.734;2022-10-16T05:05:09;97722.09;;;15.19;100.00
11448;BME280;43755;49.736;8.734;2022-10-16T05:07:10;97720.56;;;15.15;100.00
11448;BME280;43755;49.736;8.734;2022-10-16T05:09:11;97718.56;;;15.19;100.00
11448;BME280;43755;49.736;8.734;2022-10-16T05:11:13;97721.66;;;15.12;100.00
11448;BME280;43755;49.736;8.734;2022-10-16T05:13:14;97716.41;;;15.11;100.00
11448;BME280;43755;49.736;8.734;2022-10-16T05:15:16;97711.25;;;15.08;100.00
11448;BME280;43755;49.736;8.734;2022-10-16T05:17:18;97720.22;;;15.07;100.00
11448;BME280;43755;49.736;8.734;2022-10-16T05:19:20;97724.88;;;15.03;100.00
11448;BME280;43755;49.736;8.734;2022-10-16T05:21:21;97723.38;;;14.99;100.00
11448;BME280;43755;49.736;8.734;2022-10-16T05:23:22;97722.75;;;14.96;100.00
11448;BME280;43755;49.736;8.734;2022-10-16T05:25:24;97722.16;;;14.91;100.00
11448;BME280;43755;49.736;8.734;2022-10-16T05:27:25;97727.78;;;14.86;100.00
11448;BME280;43755;49.736;8.734;2022-10-16T05:29:27;97719.16;;;14.83;100.00
11448;BME280;43755;49.736;8.734;2022-10-16T05:31:28;97713.75;;;14.84;100.00
11448;BME280;43755;49.736;8.734;2022-10-16T05:33:31;97718.94;;;14.86;100.00
11448;BME280;43755;49.736;8.734;2022-10-16T05:35:33;97727.59;;;14.89;100.00
11448;BME280;43755;49.736;8.734;2022-10-16T05:37:35;97731.88;;;14.92;100.00
11448;BME280;43755;49.736;8.734;2022-10-16T05:39:36;97714.16;;;14.91;100.00
11448;BME280;43755;49.736;8.734;2022-10-16T05:41:38;97720.47;;;14.90;100.00
11448;BME280;43755;49.736;8.734;2022-10-16T05:43:39;97716.09;;;14.89;100.00
11448;BME280;43755;49.736;8.734;2022-10-16T05:45:40;97733.13;;;14.86;100.00
11448;BME280;43755;49.736;8.734;2022-10-16T05:47:42;97738.81;;;14.80;100.00
11448;BME280;43755;49.736;8.734;2022-10-16T05:49:44;97743.13;;;14.83;100.00
11448;BME280;43755;49.736;8.734;2022-10-16T05:51:46;97747.50;;;14.84;100.00
11448;BME280;43755;49.736;8.734;2022-10-16T05:53:47;97755.38;;;14.85;100.00
11448;BME280;43755;49.736;8.734;2022-10-16T05:55:51;97761.47;;;14.87;100.00
11448;BME280;43755;49.736;8.734;2022-10-16T05:57:54;97754.25;;;14.89;100.00
11448;BME280;43755;49.736;8.734;2022-10-16T05:59:55;97760.44;;;14.90;100.00
11448;BME280;43755;49.736;8.734;2022-10-16T06:01:57;97759.19;;;14.95;100.00
11448;BME280;43755;49.736;8.734;2022-10-16T06:03:58;97761.72;;;14.97;100.00
11448;BME280;43755;49.736;8.734;2022-10-16T06:06:07;97765.91;;;15.01;100.00
11448;BME280;43755;49.736;8.734;2022-10-16T06:08:08;97777.22;;;15.04;100.00
11448;BME280;43755;49.736;8.734;2022-10-16T06:10:10;97777.88;;;15.08;100.00
11448;BME280;43755;49.736;8.734;2022-10-16T06:12:11;97773.31;;;15.10;100.00
11448;BME280;43755;49.736;8.734;2022-10-16T06:14:12;97782.16;;;15.10;100.00
11448;BME280;43755;49.736;8.734;2022-10-16T06:16:14;97785.69;;;15.11;100.00
11448;BME280;43755;49.736;8.734;2022-10-16T06:18:15;97780.25;;;15.12;100.00
11448;BME280;43755;49.736;8.734;2022-10-16T06:20:17;97785.38;;;15.15;100.00
11448;BME280;43755;49.736;8.734;2022-10-16T06:22:20;97786.13;;;15.18;100.00
11448;BME280;43755;49.736;8.734;2022-10-16T06:24:21;97798.50;;;15.19;100.00
11448;BME280;43755;49.736;8.734;2022-10-16T06:26:24;97793.75;;;15.24;100.00
11448;BME280;43755;49.736;8.734;2022-10-16T06:28:26;97794.78;;;15.21;100.00
11448;BME280;43755;49.736;8.734;2022-10-16T06:30:27;97803.53;;;15.23;100.00
11448;BME280;43755;49.736;8.734;2022-10-16T06:32:29;97800.31;;;15.18;100.00
11448;BME280;43755;49.736;8.734;2022-10-16T06:34:30;97803.25;;;15.28;100.00
11448;BME280;43755;49.736;8.734;2022-10-16T06:36:31;97813.03;;;15.27;100.00
11448;BME280;43755;49.736;8.734;2022-10-16T06:38:34;97812.19;;;15.27;100.00
11448;BME280;43755;49.736;8.734;2022-10-16T06:40:36;97809.81;;;15.22;100.00
11448;BME280;43755;49.736;8.734;2022-10-16T06:42:37;97814.28;;;15.22;100.00
11448;BME280;43755;49.736;8.734;2022-10-16T06:44:38;97808.97;;;15.22;100.00
11448;BME280;43755;49.736;8.734;2022-10-16T06:46:40;97801.78;;;15.36;100.00
11448;BME280;43755;49.736;8.734;2022-10-16T06:48:41;97792.84;;;15.37;100.00
11448;BME280;43755;49.736;8.734;2022-10-16T06:50:43;97792.00;;;15.37;100.00
11448;BME280;43755;49.736;8.734;2022-10-16T06:52:44;97797.09;;;15.40;100.00
11448;BME280;43755;49.736;8.734;2022-10-16T06:54:47;97804.34;;;15.38;100.00
11448;BME280;43755;49.736;8.734;2022-10-16T06:56:48;97819.78;;;15.33;100.00
11448;BME280;43755;49.736;8.734;2022-10-16T06:58:50;97817.25;;;15.31;100.00
11448;BME280;43755;49.736;8.734;2022-10-16T07:00:55;97823.75;;;15.40;100.00
11448;BME280;43755;49.736;8.734;2022-10-16T07:02:57;97823.69;;;15.41;100.00
11448;BME280;43755;49.736;8.734;2022-10-16T07:04:58;97824.31;;;15.45;100.00
11448;BME280;43755;49.736;8.734;2022-10-16T07:07:00;97829.25;;;15.51;100.00
11448;BME280;43755;49.736;8.734;2022-10-16T07:09:05;97841.34;;;15.56;100.00
11448;BME280;43755;49.736;8.734;2022-10-16T07:11:09;97842.03;;;15.60;100.00
11448;BME280;43755;49.736;8.734;2022-10-16T07:13:11;97834.97;;;15.59;100.00
11448;BME280;43755;49.736;8.734;2022-10-16T07:15:13;97834.91;;;15.61;100.00
11448;BME280;43755;49.736;8.734;2022-10-16T07:17:14;97836.84;;;15.71;100.00
11448;BME280;43755;49.736;8.734;2022-10-16T07:19:16;97844.84;;;15.71;100.00
11448;BME280;43755;49.736;8.734;2022-10-16T07:21:19;97849.31;;;15.71;100.00
11448;BME280;43755;49.736;8.734;2022-10-16T07:23:21;97851.91;;;15.72;100.00
11448;BME280;43755;49.736;8.734;2022-10-16T07:25:23;97854.56;;;15.72;100.00
11448;BME280;43755;49.736;8.734;2022-10-16T07:27:25;97849.63;;;15.66;100.00
11448;BME280;43755;49.736;8.734;2022-10-16T07:29:27;97849.22;;;15.72;100.00
11448;BME280;43755;49.736;8.734;2022-10-16T07:31:28;97857.22;;;15.72;100.00
11448;BME280;43755;49.736;8.734;2022-10-16T07:33:30;97858.91;;;15.73;100.00
11448;BME280;43755;49.736;8.734;2022-10-16T07:35:32;97862.03;;;15.80;100.00
11448;BME280;43755;49.736;8.734;2022-10-16T07:37:33;97862.50;;;15.86;100.00
11448;BME280;43755;49.736;8.734;2022-10-16T07:39:35;97870.72;;;15.83;100.00
11448;BME280;43755;49.736;8.734;2022-10-16T07:41:36;97861.22;;;15.92;100.00
11448;BME280;43755;49.736;8.734;2022-10-16T07:43:39;97866.16;;;15.98;100.00
11448;BME280;43755;49.736;8.734;2022-10-16T07:45:48;97875.97;;;15.97;100.00
11448;BME280;43755;49.736;8.734;2022-10-16T07:47:49;97873.84;;;16.03;100.00
11448;BME280;43755;49.736;8.734;2022-10-16T07:49:51;97881.75;;;16.04;100.00
11448;BME280;43755;49.736;8.734;2022-10-16T07:51:52;97881.66;;;16.06;100.00
11448;BME280;43755;49.736;8.734;2022-10-16T07:53:54;97882.06;;;16.00;100.00
11448;BME280;43755;49.736;8.734;2022-10-16T07:55:57;97890.09;;;16.00;100.00
11448;BME280;43755;49.736;8.734;2022-10-16T07:57:58;97892.53;;;16.03;100.00
11448;BME280;43755;49.736;8.734;2022-10-16T08:00:01;97882.22;;;16.11;100.00
11448;BME280;43755;49.736;8.734;2022-10-16T08:02:03;97890.84;;;16.14;100.00
11448;BME280;43755;49.736;8.734;2022-10-16T08:04:05;97890.22;;;16.11;100.00
11448;BME280;43755;49.736;8.734;2022-10-16T08:06:07;97892.97;;;16.09;100.00
11448;BME280;43755;49.736;8.734;2022-10-16T08:08:12;97894.91;;;16.07;100.00
11448;BME280;43755;49.736;8.734;2022-10-16T08:10:16;97906.03;;;16.14;100.00
11448;BME280;43755;49.736;8.734;2022-10-16T08:12:18;97903.06;;;16.18;100.00
11448;BME280;43755;49.736;8.734;2022-10-16T08:14:19;97894.66;;;16.24;100.00
11448;BME280;43755;49.736;8.734;2022-10-16T08:16:22;97910.13;;;16.32;100.00
11448;BME280;43755;49.736;8.734;2022-10-16T08:18:23;97907.03;;;16.38;100.00
11448;BME280;43755;49.736;8.734;2022-10-16T08:20:25;97918.06;;;16.46;100.00
11448;BME280;43755;49.736;8.734;2022-10-16T08:22:27;97917.31;;;16.44;100.00
11448;BME280;43755;49.736;8.734;2022-10-16T08:24:28;97917.88;;;16.49;100.00
11448;BME280;43755;49.736;8.734;2022-10-16T08:26:31;97915.63;;;16.43;100.00
11448;BME280;43755;49.736;8.734;2022-10-16T08:28:32;97921.25;;;16.38;100.00
11448;BME280;43755;49.736;8.734;2022-10-16T08:30:34;97923.28;;;16.35;100.00
11448;BME280;43755;49.736;8.734;2022-10-16T08:32:37;97926.34;;;16.29;100.00
11448;BME280;43755;49.736;8.734;2022-10-16T08:34:38;97931.59;;;16.30;100.00
11448;BME280;43755;49.736;8.734;2022-10-16T08:36:40;97941.53;;;16.28;100.00
11448;BME280;43755;49.736;8.734;2022-10-16T08:38:41;97940.75;;;16.26;100.00
11448;BME280;43755;49.736;8.734;2022-10-16T08:40:43;97959.97;;;16.19;100.00
11448;BME280;43755;49.736;8.734;2022-10-16T08:43:00;97956.44;;;16.18;100.00
11448;BME280;43755;49.736;8.734;2022-10-16T08:45:23;97961.91;;;16.03;100.00
11448;BME280;43755;49.736;8.734;2022-10-16T08:47:44;97970.22;;;15.98;100.00
11448;BME280;43755;49.736;8.734;2022-10-16T08:49:55;97973.09;;;15.95;100.00
11448;BME280;43755;49.736;8.734;2022-10-16T08:51:58;97977.03;;;15.89;100.00
11448;BME280;43755;49.736;8.734;2022-10-16T08:54:03;97992.84;;;15.78;100.00
11448;BME280;43755;49.736;8.734;2022-10-16T08:56:05;98008.19;;;15.75;100.00
11448;BME280;43755;49.736;8.734;2022-10-16T08:58:14;98011.91;;;15.72;100.00
11448;BME280;43755;49.736;8.734;2022-10-16T09:00:16;98016.88;;;15.64;100.00
11448;BME280;43755;49.736;8.734;2022-10-16T09:02:24;98005.56;;;15.61;100.00
11448;BME280;43755;49.736;8.734;2022-10-16T09:04:53;97990.59;;;15.58;100.00
11448;BME280;43755;49.736;8.734;2022-10-16T09:06:58;97983.44;;;15.59;100.00
11448;BME280;43755;49.736;8.734;2022-10-16T09:09:10;97982.59;;;15.58;100.00
11448;BME280;43755;49.736;8.734;2022-10-16T09:11:20;97983.03;;;15.50;100.00
11448;BME280;43755;49.736;8.734;2022-10-16T09:13:29;97983.75;;;15.54;100.00
11448;BME280;43755;49.736;8.734;2022-10-16T09:15:35;98008.09;;;15.48;100.00
11448;BME280;43755;49.736;8.734;2022-10-16T09:17:46;98007.88;;;15.51;100.00
11448;BME280;43755;49.736;8.734;2022-10-16T09:19:55;98003.63;;;15.63;100.00
11448;BME280;43755;49.736;8.734;2022-10-16T09:22:04;97998.19;;;15.78;100.00
11448;BME280;43755;49.736;8.734;2022-10-16T09:24:14;98008.25;;;15.87;100.00
11448;BME280;43755;49.736;8.734;2022-10-16T09:26:18;98009.97;;;15.88;100.00
11448;BME280;43755;49.736;8.734;2022-10-16T09:28:22;98018.34;;;15.96;100.00
11448;BME280;43755;49.736;8.734;2022-10-16T09:30:26;98015.19;;;16.04;100.00
11448;BME280;43755;49.736;8.734;2022-10-16T09:32:28;98012.41;;;16.06;100.00
11448;BME280;43755;49.736;8.734;2022-10-16T09:34:32;98008.09;;;16.17;100.00
11448;BME280;43755;49.736;8.734;2022-10-16T09:36:40;98007.69;;;16.23;100.00
11448;BME280;43755;49.736;8.734;2022-10-16T09:38:42;98012.88;;;16.39;100.00
11448;BME280;43755;49.736;8.734;2022-10-16T09:40:44;98016.25;;;16.55;100.00
11448;BME280;43755;49.736;8.734;2022-10-16T09:42:46;98002.00;;;16.69;100.00
11448;BME280;43755;49.736;8.734;2022-10-16T09:44:48;98014.84;;;16.76;100.00
11448;BME280;43755;49.736;8.734;2022-10-16T09:47:00;98019.44;;;16.74;100.00
11448;BME280;43755;49.736;8.734;2022-10-16T09:49:04;98014.75;;;16.78;100.00
11448;BME280;43755;49.736;8.734;2022-10-16T09:51:23;98012.31;;;16.88;100.00
11448;BME280;43755;49.736;8.734;2022-10-16T09:53:38;98020.53;;;16.97;100.00
11448;BME280;43755;49.736;8.734;2022-10-16T09:55:49;98023.34;;;17.08;100.00
11448;BME280;43755;49.736;8.734;2022-10-16T09:57:51;98015.31;;;16.96;100.00
11448;BME280;43755;49.736;8.734;2022-10-16T09:59:54;98020.25;;;17.02;100.00
11448;BME280;43755;49.736;8.734;2022-10-16T10:01:56;98019.81;;;17.20;100.00
11448;BME280;43755;49.736;8.734;2022-10-16T10:04:04;98029.22;;;17.26;100.00
11448;BME280;43755;49.736;8.734;2022-10-16T10:06:16;98036.84;;;17.32;100.00
11448;BME280;43755;49.736;8.734;2022-10-16T10:08:18;98022.06;;;17.39;100.00
11448;BME280;43755;49.736;8.734;2022-10-16T10:10:24;98026.69;;;17.63;100.00
11448;BME280;43755;49.736;8.734;2022-10-16T10:12:27;98022.44;;;18.09;100.00
11448;BME280;43755;49.736;8.734;2022-10-16T10:14:31;98024.59;;;18.40;100.00
11448;BME280;43755;49.736;8.734;2022-10-16T10:16:36;98023.13;;;18.00;100.00
11448;BME280;43755;49.736;8.734;2022-10-16T10:18:37;98022.34;;;17.98;100.00
11448;BME280;43755;49.736;8.734;2022-10-16T10:20:39;98029.94;;;18.04;100.00
11448;BME280;43755;49.736;8.734;2022-10-16T10:22:42;98030.84;;;18.28;100.00
11448;BME280;43755;49.736;8.734;2022-10-16T10:24:55;98028.00;;;18.55;100.00
11448;BME280;43755;49.736;8.734;2022-10-16T10:27:06;98026.78;;;18.83;100.00
11448;BME280;43755;49.736;8.734;2022-10-16T10:29:18;98029.31;;;19.08;100.00
11448;BME280;43755;49.736;8.734;2022-10-16T10:31:27;98039.09;;;18.97;100.00
11448;BME280;43755;49.736;8.734;2022-10-16T10:33:37;98029.63;;;18.69;100.00
11448;BME280;43755;49.736;8.734;2022-10-16T10:35:44;98035.56;;;18.61;100.00
11448;BME280;43755;49.736;8.734;2022-10-16T10:37:55;98040.28;;;18.58;100.00
11448;BME280;43755;49.736;8.734;2022-10-16T10:40:04;98040.34;;;18.69;100.00
11448;BME280;43755;49.736;8.734;2022-10-16T10:42:19;98044.84;;;18.68;100.00
11448;BME280;43755;49.736;8.734;2022-10-16T10:44:44;98034.25;;;18.67;100.00
11448;BME280;43755;49.736;8.734;2022-10-16T10:46:51;98043.88;;;18.69;100.00